sensor_id;sensor_type;location;lat;lon;timestamp;P1;durP1;ratioP1;P2;durP2;ratioP2
74553;SDS011;63114;59.956;30.214;2022-09-09T00:01:14;7.30;;;3.65;;
74553;SDS011;63114;59.956;30.214;2022-09-09T00:04:03;4.53;;;2.55;;
74553;SDS011;63114;59.956;30.214;2022-09-09T00:12:18;4.43;;;2.00;;
74553;SDS011;63114;59.956;30.214;2022-09-09T00:17:26;4.03;;;2.20;;
74553;SDS011;63114;59.956;30.214;2022-09-09T00:20:01;4.05;;;1.90;;
74553;SDS011;63114;59.956;30.214;2022-09-09T00:22:31;4.60;;;2.00;;
74553;SDS011;63114;59.956;30.214;2022-09-09T00:25:19;4.68;;;1.98;;
74553;SDS011;63114;59.956;30.214;2022-09-09T00:27:49;5.72;;;2.63;;
74553;SDS011;63114;59.956;30.214;2022-09-09T00:32:55;3.72;;;1.88;;
74553;SDS011;63114;59.956;30.214;2022-09-09T00:35:32;5.50;;;2.58;;
74553;SDS011;63114;59.956;30.214;2022-09-09T00:38:03;4.78;;;1.73;;
74553;SDS011;63114;59.956;30.214;2022-09-09T00:40:37;3.97;;;1.80;;
74553;SDS011;63114;59.956;30.214;2022-09-09T00:48:12;3.72;;;1.60;;
74553;SDS011;63114;59.956;30.214;2022-09-09T00:53:29;4.95;;;1.83;;
74553;SDS011;63114;59.956;30.214;2022-09-09T00:58:34;3.53;;;1.88;;
74553;SDS011;63114;59.956;30.214;2022-09-09T01:01:08;5.28;;;2.00;;
74553;SDS011;63114;59.956;30.214;2022-09-09T01:03:38;7.15;;;2.60;;
74553;SDS011;63114;59.956;30.214;2022-09-09T01:12:01;6.85;;;2.75;;
74553;SDS011;63114;59.956;30.214;2022-09-09T01:22:57;5.15;;;2.92;;
74553;SDS011;63114;59.956;30.214;2022-09-09T01:28:29;6.55;;;2.75;;
74553;SDS011;63114;59.956;30.214;2022-09-09T01:31:01;6.07;;;2.45;;
74553;SDS011;63114;59.956;30.214;2022-09-09T01:33:35;5.07;;;2.65;;
74553;SDS011;63114;59.956;30.214;2022-09-09T01:38:35;5.53;;;2.58;;
74553;SDS011;63114;59.956;30.214;2022-09-09T01:41:01;5.03;;;2.22;;
74553;SDS011;63114;59.956;30.214;2022-09-09T01:43:37;6.57;;;2.35;;
74553;SDS011;63114;59.956;30.214;2022-09-09T01:46:03;4.32;;;2.42;;
74553;SDS011;63114;59.956;30.214;2022-09-09T01:48:30;4.65;;;2.35;;
74553;SDS011;63114;59.956;30.214;2022-09-09T01:51:01;4.95;;;2.58;;
74553;SDS011;63114;59.956;30.214;2022-09-09T01:53:27;4.85;;;2.20;;
74553;SDS011;63114;59.956;30.214;2022-09-09T02:04:54;4.25;;;1.85;;
74553;SDS011;63114;59.956;30.214;2022-09-09T02:07:07;4.68;;;2.45;;
74553;SDS011;63114;59.956;30.214;2022-09-09T02:09:41;4.80;;;1.70;;
74553;SDS011;63114;59.956;30.214;2022-09-09T02:12:11;3.58;;;1.75;;
74553;SDS011;63114;59.956;30.214;2022-09-09T02:14:50;4.20;;;1.80;;
74553;SDS011;63114;59.956;30.214;2022-09-09T02:17:40;3.53;;;1.30;;
74553;SDS011;63114;59.956;30.214;2022-09-09T02:20:13;2.55;;;1.50;;
74553;SDS011;63114;59.956;30.214;2022-09-09T02:22:47;4.30;;;1.55;;
74553;SDS011;63114;59.956;30.214;2022-09-09T02:25:17;3.80;;;1.50;;
74553;SDS011;63114;59.956;30.214;2022-09-09T02:27:45;4.45;;;1.10;;
74553;SDS011;63114;59.956;30.214;2022-09-09T02:30:12;2.92;;;1.40;;
74553;SDS011;63114;59.956;30.214;2022-09-09T02:35:17;2.78;;;1.10;;
74553;SDS011;63114;59.956;30.214;2022-09-09T02:37:45;3.25;;;1.23;;
74553;SDS011;63114;59.956;30.214;2022-09-09T02:40:12;2.65;;;1.42;;
74553;SDS011;63114;59.956;30.214;2022-09-09T02:42:45;3.83;;;1.15;;
74553;SDS011;63114;59.956;30.214;2022-09-09T02:45:13;4.45;;;1.10;;
74553;SDS011;63114;59.956;30.214;2022-09-09T02:48:04;2.40;;;1.10;;
74553;SDS011;63114;59.956;30.214;2022-09-09T02:50:33;3.28;;;1.25;;
74553;SDS011;63114;59.956;30.214;2022-09-09T02:53:22;3.22;;;1.20;;
74553;SDS011;63114;59.956;30.214;2022-09-09T02:55:56;2.00;;;1.25;;
74553;SDS011;63114;59.956;30.214;2022-09-09T02:58:23;4.68;;;1.42;;
74553;SDS011;63114;59.956;30.214;2022-09-09T03:00:58;2.72;;;1.38;;
74553;SDS011;63114;59.956;30.214;2022-09-09T03:03:26;3.17;;;1.30;;
74553;SDS011;63114;59.956;30.214;2022-09-09T03:05:52;4.22;;;1.40;;
74553;SDS011;63114;59.956;30.214;2022-09-09T03:08:18;4.53;;;1.67;;
74553;SDS011;63114;59.956;30.214;2022-09-09T03:10:44;5.18;;;1.35;;
74553;SDS011;63114;59.956;30.214;2022-09-09T03:13:13;3.63;;;1.30;;
74553;SDS011;63114;59.956;30.214;2022-09-09T03:15:41;5.38;;;1.85;;
74553;SDS011;63114;59.956;30.214;2022-09-09T03:18:11;5.18;;;1.50;;
74553;SDS011;63114;59.956;30.214;2022-09-09T03:20:36;3.35;;;1.30;;
74553;SDS011;63114;59.956;30.214;2022-09-09T03:23:02;2.83;;;1.48;;
74553;SDS011;63114;59.956;30.214;2022-09-09T03:25:28;4.72;;;1.83;;
74553;SDS011;63114;59.956;30.214;2022-09-09T03:27:54;2.53;;;1.42;;
74553;SDS011;63114;59.956;30.214;2022-09-09T03:30:22;3.20;;;1.55;;
74553;SDS011;63114;59.956;30.214;2022-09-09T03:32:49;3.42;;;1.50;;
74553;SDS011;63114;59.956;30.214;2022-09-09T03:35:15;3.22;;;1.48;;
74553;SDS011;63114;59.956;30.214;2022-09-09T03:37:41;3.92;;;1.65;;
74553;SDS011;63114;59.956;30.214;2022-09-09T03:40:08;3.03;;;1.50;;
74553;SDS011;63114;59.956;30.214;2022-09-09T03:42:38;4.22;;;1.83;;
74553;SDS011;63114;59.956;30.214;2022-09-09T03:45:04;5.22;;;1.58;;
74553;SDS011;63114;59.956;30.214;2022-09-09T03:47:31;5.78;;;1.75;;
74553;SDS011;63114;59.956;30.214;2022-09-09T03:50:04;4.10;;;1.67;;
74553;SDS011;63114;59.956;30.214;2022-09-09T03:52:37;6.63;;;1.50;;
74553;SDS011;63114;59.956;30.214;2022-09-09T03:55:07;3.80;;;1.42;;
74553;SDS011;63114;59.956;30.214;2022-09-09T03:57:34;5.22;;;1.50;;
74553;SDS011;63114;59.956;30.214;2022-09-09T04:00:03;3.22;;;1.40;;
74553;SDS011;63114;59.956;30.214;2022-09-09T04:02:31;2.85;;;1.50;;
74553;SDS011;63114;59.956;30.214;2022-09-09T04:04:56;7.32;;;2.20;;
74553;SDS011;63114;59.956;30.214;2022-09-09T04:07:22;4.10;;;1.58;;
74553;SDS011;63114;59.956;30.214;2022-09-09T04:09:48;3.80;;;1.80;;
74553;SDS011;63114;59.956;30.214;2022-09-09T04:12:14;5.47;;;1.95;;
74553;SDS011;63114;59.956;30.214;2022-09-09T04:14:40;3.97;;;1.48;;
74553;SDS011;63114;59.956;30.214;2022-09-09T04:17:06;2.72;;;1.40;;
74553;SDS011;63114;59.956;30.214;2022-09-09T04:19:32;4.65;;;1.52;;
74553;SDS011;63114;59.956;30.214;2022-09-09T04:21:58;3.78;;;1.50;;
74553;SDS011;63114;59.956;30.214;2022-09-09T04:24:24;3.80;;;1.42;;
74553;SDS011;63114;59.956;30.214;2022-09-09T04:26:53;5.25;;;1.58;;
74553;SDS011;63114;59.956;30.214;2022-09-09T04:29:19;3.17;;;1.33;;
74553;SDS011;63114;59.956;30.214;2022-09-09T04:31:45;4.38;;;1.42;;
74553;SDS011;63114;59.956;30.214;2022-09-09T04:34:11;3.28;;;1.38;;
74553;SDS011;63114;59.956;30.214;2022-09-09T04:36:38;5.07;;;1.30;;
74553;SDS011;63114;59.956;30.214;2022-09-09T04:39:06;4.45;;;1.38;;
74553;SDS011;63114;59.956;30.214;2022-09-09T04:41:31;3.45;;;1.20;;
74553;SDS011;63114;59.956;30.214;2022-09-09T04:43:58;3.92;;;1.27;;
74553;SDS011;63114;59.956;30.214;2022-09-09T04:46:26;3.42;;;1.40;;
74553;SDS011;63114;59.956;30.214;2022-09-09T04:48:52;4.68;;;1.40;;
74553;SDS011;63114;59.956;30.214;2022-09-09T04:51:18;4.72;;;1.52;;
74553;SDS011;63114;59.956;30.214;2022-09-09T04:53:46;2.88;;;1.20;;
74553;SDS011;63114;59.956;30.214;2022-09-09T04:56:15;5.80;;;1.50;;
74553;SDS011;63114;59.956;30.214;2022-09-09T04:59:00;3.95;;;1.40;;
74553;SDS011;63114;59.956;30.214;2022-09-09T05:01:43;5.10;;;2.00;;
74553;SDS011;63114;59.956;30.214;2022-09-09T05:04:10;3.50;;;1.10;;
74553;SDS011;63114;59.956;30.214;2022-09-09T05:06:36;3.05;;;1.35;;
74553;SDS011;63114;59.956;30.214;2022-09-09T05:09:03;4.53;;;1.40;;
74553;SDS011;63114;59.956;30.214;2022-09-09T05:11:30;6.10;;;1.48;;
74553;SDS011;63114;59.956;30.214;2022-09-09T05:14:06;3.30;;;1.30;;
74553;SDS011;63114;59.956;30.214;2022-09-09T05:16:32;3.50;;;1.20;;
74553;SDS011;63114;59.956;30.214;2022-09-09T05:18:58;5.03;;;1.17;;
74553;SDS011;63114;59.956;30.214;2022-09-09T05:21:27;4.93;;;1.33;;
74553;SDS011;63114;59.956;30.214;2022-09-09T05:23:54;6.45;;;2.10;;
74553;SDS011;63114;59.956;30.214;2022-09-09T05:26:20;4.97;;;1.38;;
74553;SDS011;63114;59.956;30.214;2022-09-09T05:28:48;4.03;;;1.10;;
74553;SDS011;63114;59.956;30.214;2022-09-09T05:31:15;5.78;;;1.40;;
74553;SDS011;63114;59.956;30.214;2022-09-09T05:33:43;5.50;;;1.83;;
74553;SDS011;63114;59.956;30.214;2022-09-09T05:36:15;4.05;;;1.58;;
74553;SDS011;63114;59.956;30.214;2022-09-09T05:38:44;3.97;;;1.60;;
74553;SDS011;63114;59.956;30.214;2022-09-09T05:41:12;4.75;;;1.35;;
74553;SDS011;63114;59.956;30.214;2022-09-09T05:43:41;3.90;;;1.00;;
74553;SDS011;63114;59.956;30.214;2022-09-09T05:46:09;8.80;;;1.60;;
74553;SDS011;63114;59.956;30.214;2022-09-09T05:48:54;3.08;;;1.25;;
74553;SDS011;63114;59.956;30.214;2022-09-09T05:51:28;4.50;;;1.45;;
74553;SDS011;63114;59.956;30.214;2022-09-09T05:54:02;2.37;;;1.20;;
74553;SDS011;63114;59.956;30.214;2022-09-09T05:56:31;5.40;;;1.40;;
74553;SDS011;63114;59.956;30.214;2022-09-09T05:59:00;4.10;;;1.30;;
74553;SDS011;63114;59.956;30.214;2022-09-09T06:01:27;3.17;;;1.30;;
74553;SDS011;63114;59.956;30.214;2022-09-09T06:03:56;5.28;;;1.30;;
74553;SDS011;63114;59.956;30.214;2022-09-09T06:06:23;4.78;;;1.25;;
74553;SDS011;63114;59.956;30.214;2022-09-09T06:08:57;5.40;;;1.40;;
74553;SDS011;63114;59.956;30.214;2022-09-09T06:11:26;3.80;;;1.48;;
74553;SDS011;63114;59.956;30.214;2022-09-09T06:13:54;3.67;;;1.48;;
74553;SDS011;63114;59.956;30.214;2022-09-09T06:16:21;5.60;;;1.35;;
74553;SDS011;63114;59.956;30.214;2022-09-09T06:18:49;5.30;;;1.30;;
74553;SDS011;63114;59.956;30.214;2022-09-09T06:23:43;3.10;;;1.20;;
74553;SDS011;63114;59.956;30.214;2022-09-09T06:26:20;4.28;;;1.60;;
74553;SDS011;63114;59.956;30.214;2022-09-09T06:28:49;6.40;;;1.75;;
74553;SDS011;63114;59.956;30.214;2022-09-09T06:31:16;6.13;;;1.70;;
74553;SDS011;63114;59.956;30.214;2022-09-09T06:33:47;5.65;;;1.67;;
74553;SDS011;63114;59.956;30.214;2022-09-09T06:36:19;5.35;;;1.65;;
74553;SDS011;63114;59.956;30.214;2022-09-09T06:38:46;5.20;;;1.40;;
74553;SDS011;63114;59.956;30.214;2022-09-09T06:41:14;6.40;;;1.73;;
74553;SDS011;63114;59.956;30.214;2022-09-09T06:43:43;11.23;;;1.70;;
74553;SDS011;63114;59.956;30.214;2022-09-09T06:46:12;4.10;;;1.90;;
74553;SDS011;63114;59.956;30.214;2022-09-09T06:48:42;4.47;;;1.45;;
74553;SDS011;63114;59.956;30.214;2022-09-09T06:53:44;5.03;;;1.50;;
74553;SDS011;63114;59.956;30.214;2022-09-09T06:58:41;7.80;;;1.80;;
74553;SDS011;63114;59.956;30.214;2022-09-09T07:01:13;4.40;;;1.40;;
74553;SDS011;63114;59.956;30.214;2022-09-09T07:03:44;5.38;;;1.40;;
74553;SDS011;63114;59.956;30.214;2022-09-09T07:06:13;3.90;;;1.20;;
74553;SDS011;63114;59.956;30.214;2022-09-09T07:08:40;4.15;;;1.33;;
74553;SDS011;63114;59.956;30.214;2022-09-09T07:11:07;4.00;;;1.40;;
74553;SDS011;63114;59.956;30.214;2022-09-09T07:13:36;3.53;;;1.20;;
74553;SDS011;63114;59.956;30.214;2022-09-09T07:16:03;5.38;;;1.30;;
74553;SDS011;63114;59.956;30.214;2022-09-09T07:18:33;6.10;;;1.30;;
74553;SDS011;63114;59.956;30.214;2022-09-09T07:21:00;4.65;;;1.58;;
74553;SDS011;63114;59.956;30.214;2022-09-09T07:23:27;3.78;;;1.35;;
74553;SDS011;63114;59.956;30.214;2022-09-09T07:25:54;4.18;;;1.70;;
74553;SDS011;63114;59.956;30.214;2022-09-09T07:28:20;3.30;;;1.35;;
74553;SDS011;63114;59.956;30.214;2022-09-09T07:30:53;3.13;;;1.45;;
74553;SDS011;63114;59.956;30.214;2022-09-09T07:33:20;3.90;;;1.20;;
74553;SDS011;63114;59.956;30.214;2022-09-09T07:35:46;4.22;;;1.40;;
74553;SDS011;63114;59.956;30.214;2022-09-09T07:38:12;2.95;;;1.08;;
74553;SDS011;63114;59.956;30.214;2022-09-09T07:40:37;6.95;;;1.90;;
74553;SDS011;63114;59.956;30.214;2022-09-09T07:43:04;4.07;;;1.10;;
74553;SDS011;63114;59.956;30.214;2022-09-09T07:45:30;2.60;;;1.13;;
74553;SDS011;63114;59.956;30.214;2022-09-09T07:47:58;2.65;;;1.20;;
74553;SDS011;63114;59.956;30.214;2022-09-09T07:50:24;4.90;;;1.52;;
74553;SDS011;63114;59.956;30.214;2022-09-09T07:52:51;2.85;;;1.10;;
74553;SDS011;63114;59.956;30.214;2022-09-09T07:55:19;3.83;;;1.10;;
74553;SDS011;63114;59.956;30.214;2022-09-09T07:57:46;4.40;;;1.33;;
74553;SDS011;63114;59.956;30.214;2022-09-09T08:00:13;3.65;;;1.00;;
74553;SDS011;63114;59.956;30.214;2022-09-09T08:02:43;4.78;;;1.25;;
74553;SDS011;63114;59.956;30.214;2022-09-09T08:05:10;5.13;;;1.80;;
74553;SDS011;63114;59.956;30.214;2022-09-09T08:07:37;3.53;;;1.20;;
74553;SDS011;63114;59.956;30.214;2022-09-09T08:10:03;3.53;;;1.10;;
74553;SDS011;63114;59.956;30.214;2022-09-09T08:12:31;3.50;;;1.30;;
74553;SDS011;63114;59.956;30.214;2022-09-09T08:14:57;3.83;;;1.58;;
74553;SDS011;63114;59.956;30.214;2022-09-09T08:17:28;4.65;;;1.10;;
74553;SDS011;63114;59.956;30.214;2022-09-09T08:19:56;3.88;;;1.42;;
74553;SDS011;63114;59.956;30.214;2022-09-09T08:22:25;3.20;;;1.30;;
74553;SDS011;63114;59.956;30.214;2022-09-09T08:24:53;5.35;;;1.73;;
74553;SDS011;63114;59.956;30.214;2022-09-09T08:27:18;4.70;;;1.45;;
74553;SDS011;63114;59.956;30.214;2022-09-09T08:29:44;5.70;;;1.55;;
74553;SDS011;63114;59.956;30.214;2022-09-09T08:32:10;4.50;;;2.22;;
74553;SDS011;63114;59.956;30.214;2022-09-09T08:34:38;5.65;;;1.83;;
74553;SDS011;63114;59.956;30.214;2022-09-09T08:37:08;3.65;;;1.20;;
74553;SDS011;63114;59.956;30.214;2022-09-09T08:39:37;3.33;;;1.27;;
74553;SDS011;63114;59.956;30.214;2022-09-09T08:42:16;6.50;;;1.42;;
74553;SDS011;63114;59.956;30.214;2022-09-09T08:45:01;3.75;;;1.30;;
74553;SDS011;63114;59.956;30.214;2022-09-09T08:48:17;4.05;;;1.40;;
74553;SDS011;63114;59.956;30.214;2022-09-09T08:55:47;4.20;;;1.60;;
74553;SDS011;63114;59.956;30.214;2022-09-09T09:11:37;2.63;;;0.90;;
74553;SDS011;63114;59.956;30.214;2022-09-09T09:14:16;3.92;;;1.10;;
74553;SDS011;63114;59.956;30.214;2022-09-09T09:16:58;3.15;;;1.42;;
74553;SDS011;63114;59.956;30.214;2022-09-09T09:19:27;1.92;;;0.98;;
74553;SDS011;63114;59.956;30.214;2022-09-09T09:24:48;2.00;;;1.10;;
74553;SDS011;63114;59.956;30.214;2022-09-09T09:27:21;2.85;;;1.13;;
74553;SDS011;63114;59.956;30.214;2022-09-09T09:29:56;2.28;;;0.98;;
74553;SDS011;63114;59.956;30.214;2022-09-09T09:32:38;3.28;;;1.42;;
74553;SDS011;63114;59.956;30.214;2022-09-09T09:35:10;4.43;;;1.33;;
74553;SDS011;63114;59.956;30.214;2022-09-09T09:37:37;3.55;;;0.98;;
74553;SDS011;63114;59.956;30.214;2022-09-09T09:40:15;2.70;;;1.15;;
74553;SDS011;63114;59.956;30.214;2022-09-09T09:42:51;3.60;;;1.15;;
74553;SDS011;63114;59.956;30.214;2022-09-09T09:45:29;2.78;;;1.20;;
74553;SDS011;63114;59.956;30.214;2022-09-09T09:47:59;2.08;;;0.90;;
74553;SDS011;63114;59.956;30.214;2022-09-09T09:50:30;3.05;;;1.02;;
74553;SDS011;63114;59.956;30.214;2022-09-09T09:52:58;4.20;;;0.93;;
74553;SDS011;63114;59.956;30.214;2022-09-09T09:55:33;1.88;;;0.90;;
74553;SDS011;63114;59.956;30.214;2022-09-09T09:58:03;2.42;;;1.02;;
74553;SDS011;63114;59.956;30.214;2022-09-09T10:00:33;2.72;;;0.88;;
74553;SDS011;63114;59.956;30.214;2022-09-09T10:03:19;3.58;;;1.10;;
74553;SDS011;63114;59.956;30.214;2022-09-09T10:05:52;1.70;;;0.85;;
74553;SDS011;63114;59.956;30.214;2022-09-09T10:08:18;2.03;;;0.82;;
74553;SDS011;63114;59.956;30.214;2022-09-09T10:16:39;2.03;;;0.60;;
74553;SDS011;63114;59.956;30.214;2022-09-09T10:19:30;3.72;;;1.10;;
74553;SDS011;63114;59.956;30.214;2022-09-09T10:22:19;1.90;;;0.70;;
74553;SDS011;63114;59.956;30.214;2022-09-09T10:33:17;3.63;;;1.00;;
74553;SDS011;63114;59.956;30.214;2022-09-09T10:36:13;5.30;;;0.80;;
74553;SDS011;63114;59.956;30.214;2022-09-09T10:38:47;2.88;;;1.27;;
74553;SDS011;63114;59.956;30.214;2022-09-09T10:41:34;5.07;;;1.20;;
74553;SDS011;63114;59.956;30.214;2022-09-09T10:47:24;2.17;;;0.90;;
74553;SDS011;63114;59.956;30.214;2022-09-09T10:57:49;3.97;;;1.23;;
74553;SDS011;63114;59.956;30.214;2022-09-09T11:00:27;4.03;;;1.00;;
74553;SDS011;63114;59.956;30.214;2022-09-09T11:03:02;2.88;;;1.10;;
74553;SDS011;63114;59.956;30.214;2022-09-09T11:05:45;3.33;;;1.17;;
74553;SDS011;63114;59.956;30.214;2022-09-09T11:16:04;2.67;;;1.00;;
74553;SDS011;63114;59.956;30.214;2022-09-09T11:18:38;2.45;;;1.73;;
74553;SDS011;63114;59.956;30.214;2022-09-09T11:21:06;2.47;;;0.98;;
74553;SDS011;63114;59.956;30.214;2022-09-09T11:26:08;3.63;;;1.30;;
74553;SDS011;63114;59.956;30.214;2022-09-09T11:39:35;2.22;;;0.90;;
74553;SDS011;63114;59.956;30.214;2022-09-09T11:42:15;3.42;;;1.33;;
74553;SDS011;63114;59.956;30.214;2022-09-09T11:44:43;3.38;;;1.20;;
74553;SDS011;63114;59.956;30.214;2022-09-09T11:47:20;1.85;;;1.02;;
74553;SDS011;63114;59.956;30.214;2022-09-09T11:49:54;3.58;;;1.33;;
74553;SDS011;63114;59.956;30.214;2022-09-09T11:52:36;2.17;;;1.30;;
74553;SDS011;63114;59.956;30.214;2022-09-09T11:55:11;2.40;;;1.10;;
74553;SDS011;63114;59.956;30.214;2022-09-09T11:57:57;2.88;;;1.00;;
74553;SDS011;63114;59.956;30.214;2022-09-09T12:00:31;7.95;;;0.85;;
74553;SDS011;63114;59.956;30.214;2022-09-09T12:03:03;5.15;;;1.13;;
74553;SDS011;63114;59.956;30.214;2022-09-09T12:05:42;1.75;;;0.90;;
74553;SDS011;63114;59.956;30.214;2022-09-09T12:08:10;2.67;;;1.05;;
74553;SDS011;63114;59.956;30.214;2022-09-09T12:10:40;2.20;;;0.80;;
74553;SDS011;63114;59.956;30.214;2022-09-09T12:13:23;4.15;;;1.58;;
74553;SDS011;63114;59.956;30.214;2022-09-09T12:15:50;1.52;;;0.88;;
74553;SDS011;63114;59.956;30.214;2022-09-09T12:18:25;2.20;;;0.80;;
74553;SDS011;63114;59.956;30.214;2022-09-09T12:23:54;6.13;;;1.25;;
74553;SDS011;63114;59.956;30.214;2022-09-09T12:26:27;3.97;;;1.20;;
74553;SDS011;63114;59.956;30.214;2022-09-09T12:34:48;2.85;;;0.95;;
74553;SDS011;63114;59.956;30.214;2022-09-09T12:39:47;4.82;;;1.25;;
74553;SDS011;63114;59.956;30.214;2022-09-09T12:42:18;6.70;;;1.30;;
74553;SDS011;63114;59.956;30.214;2022-09-09T12:44:51;4.35;;;1.10;;
74553;SDS011;63114;59.956;30.214;2022-09-09T12:47:18;2.92;;;1.10;;
74553;SDS011;63114;59.956;30.214;2022-09-09T12:49:50;6.47;;;1.25;;
74553;SDS011;63114;59.956;30.214;2022-09-09T12:52:19;2.35;;;1.00;;
74553;SDS011;63114;59.956;30.214;2022-09-09T12:54:52;3.55;;;1.30;;
74553;SDS011;63114;59.956;30.214;2022-09-09T12:57:19;4.97;;;1.10;;
74553;SDS011;63114;59.956;30.214;2022-09-09T12:59:45;2.35;;;1.00;;
74553;SDS011;63114;59.956;30.214;2022-09-09T13:02:15;5.03;;;1.00;;
74553;SDS011;63114;59.956;30.214;2022-09-09T13:04:46;6.30;;;1.35;;
74553;SDS011;63114;59.956;30.214;2022-09-09T13:07:13;6.22;;;1.58;;
74553;SDS011;63114;59.956;30.214;2022-09-09T13:09:39;4.32;;;1.00;;
74553;SDS011;63114;59.956;30.214;2022-09-09T13:12:05;6.40;;;1.27;;
74553;SDS011;63114;59.956;30.214;2022-09-09T13:14:33;2.83;;;1.15;;
74553;SDS011;63114;59.956;30.214;2022-09-09T13:17:03;6.47;;;1.27;;
74553;SDS011;63114;59.956;30.214;2022-09-09T13:19:37;3.17;;;0.90;;
74553;SDS011;63114;59.956;30.214;2022-09-09T13:25:01;5.05;;;1.10;;
74553;SDS011;63114;59.956;30.214;2022-09-09T13:27:32;10.57;;;1.42;;
74553;SDS011;63114;59.956;30.214;2022-09-09T13:30:00;4.93;;;1.23;;
74553;SDS011;63114;59.956;30.214;2022-09-09T13:32:26;4.00;;;1.23;;
74553;SDS011;63114;59.956;30.214;2022-09-09T13:35:00;3.50;;;1.10;;
74553;SDS011;63114;59.956;30.214;2022-09-09T13:37:36;5.60;;;1.10;;
74553;SDS011;63114;59.956;30.214;2022-09-09T13:40:04;3.80;;;1.20;;
74553;SDS011;63114;59.956;30.214;2022-09-09T13:42:32;3.90;;;1.40;;
74553;SDS011;63114;59.956;30.214;2022-09-09T13:45:00;10.25;;;1.58;;
74553;SDS011;63114;59.956;30.214;2022-09-09T13:47:35;6.57;;;1.40;;
74553;SDS011;63114;59.956;30.214;2022-09-09T13:52:49;4.43;;;1.10;;
74553;SDS011;63114;59.956;30.214;2022-09-09T13:55:17;3.67;;;1.13;;
74553;SDS011;63114;59.956;30.214;2022-09-09T13:57:56;4.25;;;1.10;;
74553;SDS011;63114;59.956;30.214;2022-09-09T14:00:24;3.00;;;1.40;;
74553;SDS011;63114;59.956;30.214;2022-09-09T14:02:50;3.85;;;1.08;;
74553;SDS011;63114;59.956;30.214;2022-09-09T14:05:17;5.10;;;1.75;;
74553;SDS011;63114;59.956;30.214;2022-09-09T14:07:43;3.95;;;1.77;;
74553;SDS011;63114;59.956;30.214;2022-09-09T14:10:09;5.25;;;1.55;;
74553;SDS011;63114;59.956;30.214;2022-09-09T14:12:36;3.33;;;1.00;;
74553;SDS011;63114;59.956;30.214;2022-09-09T14:15:03;2.28;;;1.20;;
74553;SDS011;63114;59.956;30.214;2022-09-09T14:17:30;4.13;;;1.77;;
74553;SDS011;63114;59.956;30.214;2022-09-09T14:19:56;3.33;;;1.20;;
74553;SDS011;63114;59.956;30.214;2022-09-09T14:22:22;3.35;;;1.35;;
74553;SDS011;63114;59.956;30.214;2022-09-09T14:24:48;2.60;;;1.00;;
74553;SDS011;63114;59.956;30.214;2022-09-09T14:27:14;4.90;;;1.60;;
74553;SDS011;63114;59.956;30.214;2022-09-09T14:29:41;6.22;;;1.50;;
74553;SDS011;63114;59.956;30.214;2022-09-09T14:32:07;8.10;;;1.65;;
74553;SDS011;63114;59.956;30.214;2022-09-09T14:34:33;5.45;;;1.50;;
74553;SDS011;63114;59.956;30.214;2022-09-09T14:36:58;6.95;;;1.88;;
74553;SDS011;63114;59.956;30.214;2022-09-09T14:39:24;4.78;;;1.88;;
74553;SDS011;63114;59.956;30.214;2022-09-09T14:41:50;7.65;;;2.00;;
74553;SDS011;63114;59.956;30.214;2022-09-09T14:44:16;4.88;;;1.50;;
74553;SDS011;63114;59.956;30.214;2022-09-09T14:46:42;3.50;;;1.33;;
74553;SDS011;63114;59.956;30.214;2022-09-09T14:49:08;6.18;;;1.52;;
74553;SDS011;63114;59.956;30.214;2022-09-09T14:51:35;8.07;;;1.83;;
74553;SDS011;63114;59.956;30.214;2022-09-09T14:54:01;6.30;;;1.30;;
74553;SDS011;63114;59.956;30.214;2022-09-09T14:56:29;3.25;;;1.40;;
74553;SDS011;63114;59.956;30.214;2022-09-09T14:58:57;3.92;;;1.10;;
74553;SDS011;63114;59.956;30.214;2022-09-09T15:01:24;4.68;;;1.45;;
74553;SDS011;63114;59.956;30.214;2022-09-09T15:03:56;5.63;;;1.52;;
74553;SDS011;63114;59.956;30.214;2022-09-09T15:06:23;7.85;;;1.60;;
74553;SDS011;63114;59.956;30.214;2022-09-09T15:08:51;4.38;;;1.58;;
74553;SDS011;63114;59.956;30.214;2022-09-09T15:11:17;7.32;;;1.58;;
74553;SDS011;63114;59.956;30.214;2022-09-09T15:13:43;9.15;;;1.73;;
74553;SDS011;63114;59.956;30.214;2022-09-09T15:16:11;6.68;;;1.75;;
74553;SDS011;63114;59.956;30.214;2022-09-09T15:18:38;3.25;;;1.48;;
74553;SDS011;63114;59.956;30.214;2022-09-09T15:21:08;2.33;;;1.05;;
74553;SDS011;63114;59.956;30.214;2022-09-09T15:23:41;3.42;;;1.10;;
74553;SDS011;63114;59.956;30.214;2022-09-09T15:26:07;7.05;;;1.13;;
74553;SDS011;63114;59.956;30.214;2022-09-09T15:28:35;4.82;;;1.27;;
74553;SDS011;63114;59.956;30.214;2022-09-09T15:31:12;6.18;;;1.33;;
74553;SDS011;63114;59.956;30.214;2022-09-09T15:36:31;2.67;;;1.30;;
74553;SDS011;63114;59.956;30.214;2022-09-09T15:39:02;6.03;;;1.48;;
74553;SDS011;63114;59.956;30.214;2022-09-09T15:41:29;2.63;;;1.20;;
74553;SDS011;63114;59.956;30.214;2022-09-09T15:43:56;3.65;;;1.20;;
74553;SDS011;63114;59.956;30.214;2022-09-09T15:46:24;4.32;;;0.90;;
74553;SDS011;63114;59.956;30.214;2022-09-09T15:49:19;3.60;;;1.00;;
74553;SDS011;63114;59.956;30.214;2022-09-09T15:51:45;2.50;;;1.27;;
74553;SDS011;63114;59.956;30.214;2022-09-09T15:54:16;3.85;;;1.20;;
74553;SDS011;63114;59.956;30.214;2022-09-09T15:56:43;2.38;;;1.17;;
74553;SDS011;63114;59.956;30.214;2022-09-09T15:59:10;4.57;;;1.40;;
74553;SDS011;63114;59.956;30.214;2022-09-09T16:01:36;2.92;;;1.00;;
74553;SDS011;63114;59.956;30.214;2022-09-09T16:04:04;2.22;;;1.00;;
74553;SDS011;63114;59.956;30.214;2022-09-09T16:06:31;2.97;;;0.93;;
74553;SDS011;63114;59.956;30.214;2022-09-09T16:08:58;2.80;;;1.10;;
74553;SDS011;63114;59.956;30.214;2022-09-09T16:11:29;4.60;;;1.10;;
74553;SDS011;63114;59.956;30.214;2022-09-09T16:13:57;5.85;;;1.10;;
74553;SDS011;63114;59.956;30.214;2022-09-09T16:16:24;4.15;;;1.20;;
74553;SDS011;63114;59.956;30.214;2022-09-09T16:18:52;4.75;;;1.30;;
74553;SDS011;63114;59.956;30.214;2022-09-09T16:21:23;6.32;;;1.23;;
74553;SDS011;63114;59.956;30.214;2022-09-09T16:23:51;4.03;;;1.30;;
74553;SDS011;63114;59.956;30.214;2022-09-09T16:26:18;2.95;;;1.10;;
74553;SDS011;63114;59.956;30.214;2022-09-09T16:28:44;4.65;;;1.40;;
74553;SDS011;63114;59.956;30.214;2022-09-09T16:31:14;1.95;;;1.05;;
74553;SDS011;63114;59.956;30.214;2022-09-09T16:33:41;4.80;;;2.00;;
74553;SDS011;63114;59.956;30.214;2022-09-09T16:36:07;5.07;;;2.72;;
74553;SDS011;63114;59.956;30.214;2022-09-09T16:38:35;6.53;;;3.72;;
74553;SDS011;63114;59.956;30.214;2022-09-09T16:41:02;8.05;;;4.90;;
74553;SDS011;63114;59.956;30.214;2022-09-09T16:43:30;13.55;;;6.78;;
74553;SDS011;63114;59.956;30.214;2022-09-09T16:45:56;9.43;;;5.85;;
74553;SDS011;63114;59.956;30.214;2022-09-09T16:48:21;10.68;;;6.15;;
74553;SDS011;63114;59.956;30.214;2022-09-09T16:50:47;12.55;;;5.70;;
74553;SDS011;63114;59.956;30.214;2022-09-09T16:53:14;10.13;;;5.20;;
74553;SDS011;63114;59.956;30.214;2022-09-09T16:55:41;9.52;;;5.18;;
74553;SDS011;63114;59.956;30.214;2022-09-09T16:58:09;9.43;;;4.90;;
74553;SDS011;63114;59.956;30.214;2022-09-09T17:00:36;6.15;;;3.63;;
74553;SDS011;63114;59.956;30.214;2022-09-09T17:03:02;6.03;;;3.40;;
74553;SDS011;63114;59.956;30.214;2022-09-09T17:05:28;6.63;;;3.75;;
74553;SDS011;63114;59.956;30.214;2022-09-09T17:07:54;5.95;;;3.58;;
74553;SDS011;63114;59.956;30.214;2022-09-09T17:10:23;6.63;;;4.25;;
74553;SDS011;63114;59.956;30.214;2022-09-09T17:12:50;7.30;;;4.47;;
74553;SDS011;63114;59.956;30.214;2022-09-09T17:15:16;4.05;;;2.50;;
74553;SDS011;63114;59.956;30.214;2022-09-09T17:17:43;4.55;;;2.80;;